Nearby METAR Reports

 

KPMP - Pompano Beach, Florida, USA
Distance from station: NNW 3mi, 5km
Updated: 05/21/2019 10:53am
Clear
Clear
 Wind from SE
Wind: SE 7 mph , 11 km/h
Temperature: 84°F , 29°C
Heat Index: 86°F , 30°C
Dew Point: 66°F , 19°C
Humidity: 55%
Barometer: 29.99 inHg , 1015.6 hPa
Clouds: Clear
Visibility: 10 miles , 16 km
2019/05/21 14:53 KPMP 211453Z 13006KT 10SM CLR 29/19 A2999 RMK AO2 SLP155 T02940194 51009
KFXE - Ft Lauderd/Exec, Florida, USA
Distance from station: W 6mi, 9km
Updated: 05/21/2019 10:53am
Partly cloudy
Partly cloudy
 Wind from SE
Wind: SE 8 mph , 13 km/h
Temperature: 88°F , 31°C
Heat Index: 91°F , 33°C
Dew Point: 66°F , 19°C
Humidity: 49%
Barometer: 29.98 inHg , 1015.2 hPa
Clouds: Partly cloudy
Visibility: 10 miles , 16 km
Cloud details: Partly cloudy 3600 ft
Partly cloudy 4500 ft
2019/05/21 14:53 KFXE 211453Z 13007KT 090V150 10SM SCT036 SCT045 31/19 A2998 RMK AO2 SLP154 T03110194 51008
 
KFLL - Ft Lauderd/Holly, Florida, USA
Distance from station: SSW 11mi, 17km
Updated: 05/21/2019 10:53am
Few Clouds
Few Clouds
 Wind from ESE
Wind: ESE 8 mph , 13 km/h
Temperature: 84°F , 29°C
Heat Index: 87°F , 31°C
Dew Point: 68°F , 20°C
Humidity: 58%
Barometer: 29.98 inHg , 1015.2 hPa
Clouds: Few Clouds
Visibility: 10 miles , 16 km
Cloud details: Few Clouds 3000 ft
2019/05/21 14:53 KFLL 211453Z 12007KT 10SM FEW030 29/20 A2998 RMK AO2 SLP151 T02890200 51009
KBCT - Boca Raton, Florida, USA
Distance from station: N 12mi, 19km
Updated: 05/21/2019 10:47am
Partly cloudy
Partly cloudy
 Wind from SE
Wind: SE 8 mph , 13 km/h
Temperature: 90°F , 32°C
Heat Index: 96°F , 36°C
Dew Point: 70°F , 21°C
Humidity: 52%
Barometer: 29.99 inHg , 1015.6 hPa
Clouds: Partly cloudy
Visibility: 10 miles , 16 km
Cloud details: Partly cloudy 3200 ft
2019/05/21 14:47 KBCT 211447Z 14007KT 070V150 10SM SCT032 32/21 A2999
 
KHWO - Hollywood, Florida, USA
Distance from station: SSW 17mi, 27km
Updated: 05/21/2019 10:53am
Clear
Clear
 Wind from varies
Wind: varies 3 mph , 6 km/h
Temperature: 84°F , 29°C
Heat Index: 86°F , 30°C
Dew Point: 66°F , 19°C
Humidity: 55%
Barometer: 29.99 inHg , 1015.6 hPa
Clouds: Clear
Visibility: 10 miles , 16 km
2019/05/21 14:53 KHWO 211453Z VRB03KT 10SM CLR 29/19 A2999 RMK AO2 SLP157 T02890189 51007
KOPF - Miami/Opa Locka, Florida, USA
Distance from station: SSW 24mi, 38km
Updated: 05/21/2019 10:53am
Few Clouds
Few Clouds
 Wind from E
Wind: E 5 mph , 7 km/h
Temperature: 88°F , 31°C
Heat Index: 93°F , 34°C
Dew Point: 70°F , 21°C
Humidity: 55%
Barometer: 29.99 inHg , 1015.6 hPa
Clouds: Few Clouds
Visibility: 10 miles , 16 km
Cloud details: Few Clouds 5500 ft
2019/05/21 14:53 KOPF 211453Z 09004KT 10SM FEW055 31/21 A2999 RMK AO2 SLP155 T03060211 51008
 
KMIA - Miami, Florida, USA
Distance from station: SSW 31mi, 50km
Updated: 05/21/2019 10:53am
Partly cloudy
Partly cloudy
 Wind from SE
Wind: SE 7 mph , 11 km/h
Temperature: 86°F , 30°C
Heat Index: 92°F , 33°C
Dew Point: 72°F , 22°C
Humidity: 62%
Barometer: 29.98 inHg , 1015.2 hPa
Clouds: Partly cloudy
Visibility: 10 miles , 16 km
Cloud details: Partly cloudy 3400 ft
2019/05/21 14:53 KMIA 211453Z 13006KT 10SM SCT034 30/22 A2998 RMK AO2 SLP154 T03000217 51009
KPBI - West Palm Beach, Florida, USA
Distance from station: N 33mi, 52km
Updated: 05/21/2019 10:53am
Partly cloudy
Partly cloudy
 Wind from E
Wind: E 9 mph , 15 km/h
Temperature: 84°F , 29°C
Heat Index: 88°F , 31°C
Dew Point: 70°F , 21°C
Humidity: 62%
Barometer: 29.99 inHg , 1015.6 hPa
Clouds: Partly cloudy
Visibility: 10 miles , 16 km
Cloud details: Partly cloudy 3000 ft
2019/05/21 14:53 KPBI 211453Z 09008KT 10SM SCT030 29/21 A2999 RMK AO2 SLP156 T02940211 53008
 
KTMB - Miami/Tamiami, Florida, USA
Distance from station: SSW 44mi, 71km
Updated: 05/21/2019 10:53am
Mostly cloudy
Mostly cloudy
 Wind from E
Wind: E 8 mph , 13 km/h
Temperature: 88°F , 31°C
Heat Index: 93°F , 34°C
Dew Point: 70°F , 21°C
Humidity: 55%
Barometer: 29.98 inHg , 1015.2 hPa
Clouds: Mostly cloudy
Visibility: 10 miles , 16 km
Cloud details: Mostly cloudy 3700 ft
2019/05/21 14:53 KTMB 211453Z 09007KT 10SM BKN037 31/21 A2998 RMK AO2 SLP150 T03110211 51008